createdAt,value
2023-04-20T00:01:59.734Z,64.73
2023-04-20T00:04:30.291Z,64.49
2023-04-20T00:07:02.356Z,63.57
2023-04-20T00:09:32.841Z,63.63
2023-04-20T00:12:03.354Z,62.96
2023-04-20T00:14:33.929Z,63.50
2023-04-20T00:17:04.453Z,62.99
2023-04-20T00:19:35.469Z,62.43
2023-04-20T00:22:07.700Z,62.43
2023-04-20T00:24:38.302Z,62.31
2023-04-20T00:27:09.099Z,61.94
2023-04-20T00:29:39.481Z,61.36
2023-04-20T00:32:10.549Z,60.99
2023-04-20T00:34:41.366Z,61.04
2023-04-20T00:37:14.047Z,60.95
2023-04-20T00:39:44.755Z,60.68
2023-04-20T00:42:15.502Z,59.98
2023-04-20T00:44:46.275Z,60.62
2023-04-20T00:47:16.722Z,60.22
2023-04-20T00:49:47.670Z,60.13
2023-04-20T00:52:20.172Z,59.81
2023-04-20T00:54:51.684Z,59.68
2023-04-20T00:57:24.982Z,59.83
2023-04-20T00:59:56.159Z,59.70
2023-04-20T01:02:27.136Z,59.37
2023-04-20T01:04:58.422Z,58.93
2023-04-20T01:07:31.409Z,58.57
2023-04-20T01:10:01.998Z,58.38
2023-04-20T01:12:32.762Z,58.53
2023-04-20T01:15:03.470Z,58.44
2023-04-20T01:17:34.227Z,58.66
2023-04-20T01:20:04.879Z,58.26
2023-04-20T01:22:37.062Z,58.37
2023-04-20T01:25:08.249Z,57.66
2023-04-20T01:27:39.010Z,57.73
2023-04-20T01:30:10.689Z,57.00
2023-04-20T01:32:41.458Z,57.26
2023-04-20T01:35:12.469Z,57.13
2023-04-20T01:37:45.167Z,57.34
2023-04-20T01:40:17.205Z,57.05
2023-04-20T01:42:48.573Z,57.00
2023-04-20T01:45:19.029Z,56.46
2023-04-20T01:47:49.562Z,57.23
2023-04-20T01:50:20.206Z,56.61
2023-04-20T01:52:52.489Z,57.09
2023-04-20T01:55:23.309Z,56.93
2023-04-20T01:57:53.904Z,56.58
2023-04-20T02:00:24.414Z,56.70
2023-04-20T02:02:55.126Z,56.81
2023-04-20T02:05:26.474Z,56.36
2023-04-20T02:07:58.744Z,55.68
2023-04-20T02:10:29.274Z,54.92
2023-04-20T02:12:59.941Z,54.73
2023-04-20T02:15:30.606Z,54.87
2023-04-20T02:18:01.135Z,55.18
2023-04-20T02:20:31.747Z,55.05
2023-04-20T02:25:51.188Z,54.65
2023-04-20T02:28:21.777Z,54.52
2023-04-20T02:30:52.192Z,54.34
2023-04-20T02:33:23.793Z,54.80
2023-04-20T02:35:54.253Z,54.90
2023-04-20T02:38:26.426Z,54.64
2023-04-20T02:40:56.893Z,54.86
2023-04-20T02:43:27.747Z,54.82
2023-04-20T02:45:58.311Z,55.05
2023-04-20T02:48:28.806Z,54.78
2023-04-20T02:50:59.388Z,53.97
2023-04-20T02:53:31.623Z,53.87
2023-04-20T02:56:02.162Z,54.39
2023-04-20T02:58:32.684Z,55.12
2023-04-20T03:01:03.819Z,55.64
2023-04-20T03:03:34.791Z,55.87
2023-04-20T03:06:05.387Z,56.05
2023-04-20T03:08:37.957Z,56.41
2023-04-20T03:11:08.498Z,57.07
2023-04-20T03:13:38.895Z,57.05
2023-04-20T03:16:09.744Z,56.96
2023-04-20T03:18:40.475Z,56.66
2023-04-20T03:21:13.618Z,56.78
2023-04-20T03:23:45.824Z,57.09
2023-04-20T03:26:16.292Z,57.38
2023-04-20T03:28:46.821Z,57.29
2023-04-20T03:31:17.401Z,56.60
2023-04-20T03:33:48.610Z,56.48
2023-04-20T03:36:19.675Z,55.51
2023-04-20T03:38:51.647Z,56.10
2023-04-20T03:41:22.169Z,56.43
2023-04-20T03:43:58.606Z,55.90
2023-04-20T03:46:29.325Z,56.86
2023-04-20T03:48:59.982Z,57.45
2023-04-20T03:51:30.694Z,57.96
2023-04-20T03:54:14.175Z,59.06
2023-04-20T03:56:45.500Z,59.14
2023-04-20T03:59:16.306Z,59.68
2023-04-20T04:01:47.164Z,60.35
2023-04-20T04:04:18.176Z,61.19
2023-04-20T04:06:48.967Z,62.79
2023-04-20T04:09:21.145Z,64.10
2023-04-20T04:11:51.683Z,65.11
2023-04-20T04:14:22.176Z,65.91
2023-04-20T04:16:52.894Z,66.11
2023-04-20T04:19:23.546Z,67.93
2023-04-20T04:21:54.008Z,68.59
2023-04-20T04:24:27.775Z,69.35
2023-04-20T04:26:59.350Z,70.43
2023-04-20T04:29:29.974Z,70.54
2023-04-20T04:32:01.636Z,70.91
2023-04-20T04:34:32.177Z,71.31
2023-04-20T04:37:02.709Z,72.24
2023-04-20T04:39:34.851Z,73.07
2023-04-20T04:42:05.610Z,73.26
2023-04-20T04:44:36.490Z,73.42
2023-04-20T04:47:07.232Z,72.59
2023-04-20T04:49:38.171Z,72.68
2023-04-20T04:52:08.635Z,73.56
2023-04-20T04:54:40.784Z,73.90
2023-04-20T04:57:11.316Z,73.94
2023-04-20T04:59:41.798Z,74.54
2023-04-20T05:02:12.296Z,74.62
2023-04-20T05:04:42.909Z,75.57
2023-04-20T05:07:14.908Z,76.27
2023-04-20T05:09:46.934Z,76.06
2023-04-20T05:12:17.517Z,76.54
2023-04-20T05:14:48.102Z,77.41
2023-04-20T05:17:18.589Z,78.28
2023-04-20T05:19:49.042Z,78.88
2023-04-20T05:22:19.596Z,79.58
2023-04-20T05:24:51.838Z,80.01
2023-04-20T05:27:22.393Z,81.82
2023-04-20T05:29:52.826Z,81.96
2023-04-20T05:32:23.302Z,82.69
2023-04-20T05:34:56.971Z,83.63
2023-04-20T05:37:28.261Z,83.89
2023-04-20T05:40:00.387Z,84.26
2023-04-20T05:42:30.894Z,83.97
2023-04-20T05:45:01.554Z,83.53
2023-04-20T05:47:31.972Z,83.89
2023-04-20T05:50:03.248Z,83.39
2023-04-20T05:52:33.750Z,83.25
2023-04-20T05:55:05.856Z,82.92
2023-04-20T05:57:41.736Z,82.69
2023-04-20T06:00:14.067Z,82.73
2023-04-20T06:02:45.192Z,82.31
2023-04-20T06:05:15.884Z,82.38
2023-04-20T06:07:46.499Z,82.73
2023-04-20T06:10:18.931Z,83.26
2023-04-20T06:12:49.406Z,82.78
2023-04-20T06:15:20.039Z,82.92
2023-04-20T06:17:50.653Z,82.50
2023-04-20T06:20:21.573Z,82.56
2023-04-20T06:22:53.245Z,82.97
2023-04-20T06:25:25.834Z,82.59
2023-04-20T06:27:56.378Z,82.50
2023-04-20T06:30:27.124Z,82.54
2023-04-20T06:32:58.004Z,82.60
2023-04-20T06:35:29.735Z,83.05
2023-04-20T06:38:00.404Z,83.38
2023-04-20T06:40:33.010Z,83.47
2023-04-20T06:43:03.639Z,83.16
2023-04-20T06:45:34.349Z,83.82
2023-04-20T06:48:04.929Z,84.10
2023-04-20T06:50:35.543Z,84.25
2023-04-20T06:53:06.696Z,83.90
2023-04-20T06:55:38.763Z,84.04
2023-04-20T06:58:10.007Z,83.93
2023-04-20T07:00:40.524Z,83.72
2023-04-20T07:03:11.168Z,83.42
2023-04-20T07:05:41.805Z,82.79
2023-04-20T07:08:12.210Z,82.68
2023-04-20T07:10:44.281Z,82.14
2023-04-20T07:13:14.732Z,81.74
2023-04-20T07:15:46.086Z,81.89
2023-04-20T07:18:16.600Z,81.64
2023-04-20T07:20:47.106Z,81.76
2023-04-20T07:23:17.569Z,82.04
2023-04-20T07:25:49.759Z,82.69
2023-04-20T07:28:20.258Z,82.34
2023-04-20T07:30:50.850Z,82.87
2023-04-20T07:33:21.935Z,82.56
2023-04-20T07:35:52.312Z,81.67
2023-04-20T07:38:22.739Z,81.85
2023-04-20T07:40:54.722Z,80.29
2023-04-20T07:43:25.154Z,79.78
2023-04-20T07:45:55.738Z,78.77
2023-04-20T07:48:26.458Z,78.50
2023-04-20T07:50:56.930Z,78.04
2023-04-20T07:53:27.342Z,77.38
2023-04-20T07:55:59.419Z,76.32
2023-04-20T07:58:30.002Z,75.40
2023-04-20T08:01:00.574Z,74.81
2023-04-20T08:03:31.405Z,73.17
2023-04-20T08:06:02.553Z,72.75
2023-04-20T08:08:33.043Z,71.45
2023-04-20T08:11:05.276Z,71.14
2023-04-20T08:13:36.075Z,71.22
2023-04-20T08:16:07.477Z,69.84
2023-04-20T08:18:38.180Z,69.60
2023-04-20T08:21:08.709Z,70.22
2023-04-20T08:23:39.155Z,70.33
2023-04-20T08:26:11.220Z,71.19
2023-04-20T08:28:41.631Z,72.56
2023-04-20T08:31:12.215Z,73.53
2023-04-20T08:33:42.719Z,75.32
2023-04-20T08:36:13.196Z,77.03
2023-04-20T08:38:43.800Z,77.68
2023-04-20T08:41:16.123Z,78.91
2023-04-20T08:43:47.559Z,79.99
2023-04-20T08:46:18.166Z,80.87
2023-04-20T08:48:50.681Z,80.70
2023-04-20T08:51:21.206Z,80.79
2023-04-20T08:53:51.820Z,81.00
2023-04-20T08:56:23.847Z,82.13
2023-04-20T08:58:54.386Z,81.52
2023-04-20T09:01:35.552Z,81.27
2023-04-20T09:04:19.172Z,81.07
2023-04-20T09:06:53.901Z,81.13
2023-04-20T09:09:28.092Z,80.64
2023-04-20T09:12:10.590Z,80.28
2023-04-20T09:14:48.482Z,80.32
2023-04-20T09:17:20.041Z,80.73
2023-04-20T09:19:57.205Z,80.74
2023-04-20T09:22:35.160Z,81.25
2023-04-20T09:25:19.983Z,82.16
2023-04-20T09:28:00.748Z,83.06
2023-04-20T09:30:41.801Z,84.46
2023-04-20T09:33:18.304Z,84.92
2023-04-20T09:35:51.880Z,85.80
2023-04-20T09:38:31.829Z,87.06
2023-04-20T09:41:04.293Z,87.21
2023-04-20T09:43:38.079Z,87.20
2023-04-20T09:46:13.370Z,87.71
2023-04-20T09:48:46.509Z,88.20
2023-04-20T09:51:17.981Z,88.31
2023-04-20T09:53:53.367Z,88.88
2023-04-20T09:56:27.045Z,89.58
2023-04-20T09:58:59.881Z,88.96
2023-04-20T10:01:34.640Z,88.78
2023-04-20T10:05:32.624Z,89.24
2023-04-20T10:08:03.696Z,89.51
2023-04-20T10:10:34.567Z,90.33
2023-04-20T10:13:05.331Z,90.60
2023-04-20T10:15:45.225Z,90.62
2023-04-20T10:18:24.571Z,90.43
2023-04-20T10:21:10.265Z,90.88
2023-04-20T10:23:59.923Z,90.74
2023-04-20T10:26:40.223Z,90.57
2023-04-20T10:29:13.344Z,89.78
2023-04-20T10:31:51.908Z,90.06
2023-04-20T10:34:33.826Z,91.07
2023-04-20T10:37:11.882Z,91.13
2023-04-20T10:39:48.336Z,91.59
2023-04-20T10:42:18.921Z,92.26
2023-04-20T10:44:52.715Z,92.25
2023-04-20T10:47:33.379Z,92.04
2023-04-20T10:50:11.842Z,91.52
2023-04-20T10:52:52.434Z,90.79
2023-04-20T10:55:29.296Z,90.98
2023-04-20T10:58:00.576Z,90.84
2023-04-20T11:00:32.383Z,91.01
2023-04-20T11:03:07.341Z,91.26
2023-04-20T11:05:40.784Z,90.71
2023-04-20T11:08:11.416Z,90.47
2023-04-20T11:10:43.638Z,90.20
2023-04-20T11:13:24.247Z,90.22
2023-04-20T11:15:55.004Z,91.15
2023-04-20T11:18:27.318Z,90.87
2023-04-20T11:20:58.583Z,90.43
2023-04-20T11:23:41.259Z,90.15
2023-04-20T11:26:11.969Z,90.52
2023-04-20T11:28:54.511Z,90.87
2023-04-20T11:31:29.895Z,90.79
2023-04-20T11:34:04.822Z,91.26
2023-04-20T11:36:42.605Z,91.36
2023-04-20T11:39:14.663Z,90.72
2023-04-20T11:41:46.124Z,90.75
2023-04-20T11:44:21.684Z,91.22
2023-04-20T11:46:54.968Z,91.83
2023-04-20T11:49:32.147Z,92.31
2023-04-20T11:52:02.966Z,92.72
2023-04-20T11:54:35.878Z,91.46
2023-04-20T11:57:06.528Z,91.07
2023-04-20T11:59:37.686Z,92.50
2023-04-20T12:02:08.545Z,93.25
2023-04-20T12:04:51.389Z,93.52
2023-04-20T12:07:24.628Z,94.33
2023-04-20T12:09:55.229Z,94.81
2023-04-20T12:12:30.265Z,95.54
2023-04-20T12:15:03.016Z,96.21
2023-04-20T12:17:33.699Z,96.23
2023-04-20T12:20:09.636Z,96.77
2023-04-20T12:22:42.418Z,96.86
2023-04-20T12:25:14.661Z,97.46
2023-04-20T12:27:45.375Z,97.52
2023-04-20T12:30:17.603Z,97.68
2023-04-20T12:32:48.119Z,98.50
2023-04-20T12:35:23.458Z,98.67
2023-04-20T12:37:54.576Z,98.57
2023-04-20T12:40:26.038Z,98.63
2023-04-20T12:42:57.312Z,98.82
2023-04-20T12:45:29.181Z,99.21
2023-04-20T12:48:00.721Z,98.88
2023-04-20T12:50:33.586Z,99.08
2023-04-20T12:53:10.585Z,98.94
2023-04-20T12:55:46.846Z,99.30
2023-04-20T12:58:21.664Z,99.41
2023-04-20T13:00:52.297Z,98.88
2023-04-20T13:03:35.068Z,98.24
2023-04-20T13:06:12.960Z,97.89
2023-04-20T13:08:44.969Z,97.39
2023-04-20T13:11:16.919Z,96.01
2023-04-20T13:13:50.372Z,96.09
2023-04-20T13:16:23.974Z,95.20
2023-04-20T13:19:08.696Z,95.21
2023-04-20T13:21:46.406Z,94.48
2023-04-20T13:24:18.419Z,94.04
2023-04-20T13:26:50.297Z,93.47
2023-04-20T13:29:21.797Z,93.07
2023-04-20T13:31:53.452Z,93.02
2023-04-20T13:34:24.953Z,93.19
2023-04-20T13:36:59.333Z,93.09
2023-04-20T13:39:31.267Z,93.61
2023-04-20T13:42:02.816Z,93.49
2023-04-20T13:44:34.572Z,93.94
2023-04-20T13:47:06.484Z,94.57
2023-04-20T13:49:38.048Z,94.55
2023-04-20T13:52:11.497Z,94.46
2023-04-20T13:54:42.977Z,93.33
2023-04-20T13:57:15.231Z,92.73
2023-04-20T13:59:47.006Z,91.74
2023-04-20T14:02:18.590Z,91.78
2023-04-20T14:04:50.119Z,91.61
2023-04-20T14:07:23.320Z,91.70
2023-04-20T14:09:57.275Z,91.53
2023-04-20T14:12:47.871Z,91.54
2023-04-20T14:15:18.460Z,92.36
2023-04-20T14:17:52.235Z,93.49
2023-04-20T14:20:24.148Z,94.14
2023-04-20T14:22:58.449Z,94.15
2023-04-20T14:25:30.877Z,94.17
2023-04-20T14:28:01.305Z,95.45
2023-04-20T14:30:31.956Z,94.43
2023-04-20T14:33:04.711Z,93.67
2023-04-20T14:35:35.879Z,92.71
2023-04-20T14:38:15.573Z,91.89
2023-04-20T14:40:46.216Z,92.41
2023-04-20T14:43:17.103Z,92.80
2023-04-20T14:45:52.235Z,93.42
2023-04-20T14:48:25.006Z,93.65
2023-04-20T14:50:56.615Z,93.96
2023-04-20T14:53:30.106Z,94.02
2023-04-20T14:56:01.633Z,94.47
2023-04-20T14:58:32.326Z,94.58
2023-04-20T15:01:02.769Z,94.58
2023-04-20T15:03:34.045Z,94.65
2023-04-20T15:06:06.209Z,94.56
2023-04-20T15:08:41.174Z,94.38
2023-04-20T15:11:11.623Z,94.28
2023-04-20T15:13:42.130Z,94.78
2023-04-20T15:16:15.592Z,95.17
2023-04-20T15:18:48.251Z,95.65
2023-04-20T15:21:18.777Z,95.61
2023-04-20T15:23:51.741Z,95.07
2023-04-20T15:26:27.748Z,95.06
2023-04-20T15:28:58.516Z,95.62
2023-04-20T15:31:33.350Z,95.16
2023-04-20T15:34:08.579Z,95.56
2023-04-20T15:36:40.301Z,96.16
2023-04-20T15:39:29.671Z,95.47
2023-04-20T15:42:00.456Z,95.66
2023-04-20T15:44:31.528Z,97.19
2023-04-20T15:47:04.003Z,97.39
2023-04-20T15:49:37.106Z,96.89
2023-04-20T15:52:07.841Z,97.32
2023-04-20T15:54:40.780Z,97.26
2023-04-20T15:57:13.137Z,97.37
2023-04-20T15:59:43.642Z,97.13
2023-04-20T16:02:19.946Z,96.34
2023-04-20T16:04:50.440Z,95.68
2023-04-20T16:07:21.051Z,96.11
2023-04-20T16:09:53.156Z,95.69
2023-04-20T16:12:23.744Z,95.54
2023-04-20T16:14:54.434Z,95.04
2023-04-20T16:17:24.968Z,95.66
2023-04-20T16:19:55.418Z,96.46
2023-04-20T16:22:31.593Z,96.60
2023-04-20T16:25:08.109Z,97.35
2023-04-20T16:27:38.862Z,97.69
2023-04-20T16:30:10.768Z,97.89
2023-04-20T16:32:48.789Z,98.21
2023-04-20T16:35:26.992Z,98.90
2023-04-20T16:37:58.480Z,98.18
2023-04-20T16:40:30.543Z,97.53
2023-04-20T16:43:05.568Z,96.11
2023-04-20T16:45:37.029Z,95.10
2023-04-20T16:48:08.878Z,93.94
2023-04-20T16:50:40.912Z,93.50
2023-04-20T16:53:18.575Z,92.50
2023-04-20T16:55:50.656Z,91.68
2023-04-20T16:58:21.228Z,90.77
2023-04-20T17:00:51.711Z,89.97
2023-04-20T17:03:22.448Z,89.20
2023-04-20T17:05:57.606Z,88.92
2023-04-20T17:08:29.728Z,88.93
2023-04-20T17:11:02.635Z,88.45
2023-04-20T17:13:36.357Z,87.58
2023-04-20T17:16:07.240Z,86.90
2023-04-20T17:18:41.700Z,86.13
2023-04-20T17:21:12.423Z,85.75
2023-04-20T17:23:46.917Z,85.97
2023-04-20T17:26:18.926Z,87.14
2023-04-20T17:28:49.477Z,87.37
2023-04-20T17:31:21.518Z,87.20
2023-04-20T17:33:54.216Z,87.57
2023-04-20T17:36:24.723Z,87.49
2023-04-20T17:38:57.031Z,87.03
2023-04-20T17:41:32.938Z,86.44
2023-04-20T17:44:03.293Z,86.05
2023-04-20T17:46:40.019Z,85.81
2023-04-20T17:49:10.539Z,84.48
2023-04-20T17:51:40.847Z,84.35
2023-04-20T17:54:12.128Z,83.60
2023-04-20T17:56:44.213Z,83.18
2023-04-20T17:59:14.591Z,81.76
2023-04-20T18:01:48.047Z,81.50
2023-04-20T18:04:19.016Z,82.14
2023-04-20T18:06:55.040Z,81.23
2023-04-20T18:09:28.524Z,81.50
2023-04-20T18:12:00.692Z,80.88
2023-04-20T18:14:31.069Z,80.59
2023-04-20T18:17:01.542Z,80.72
2023-04-20T18:19:36.509Z,80.82
2023-04-20T18:22:07.274Z,80.68
2023-04-20T18:24:43.763Z,80.92
2023-04-20T18:27:17.357Z,82.59
2023-04-20T18:29:52.418Z,82.72
2023-04-20T18:32:25.076Z,82.29
2023-04-20T18:34:55.518Z,81.85
2023-04-20T18:37:26.014Z,81.83
2023-04-20T18:39:59.350Z,80.88
2023-04-20T18:42:31.379Z,80.12
2023-04-20T18:45:09.684Z,79.37
2023-04-20T18:47:40.234Z,78.81
2023-04-20T18:50:11.594Z,78.43
2023-04-20T18:52:44.898Z,77.82
2023-04-20T18:55:19.862Z,77.63
2023-04-20T18:57:56.974Z,78.20
2023-04-20T19:00:29.951Z,78.79
2023-04-20T19:03:00.596Z,78.52
2023-04-20T19:05:36.773Z,78.16
2023-04-20T19:08:07.269Z,77.77
2023-04-20T19:10:41.592Z,76.71
2023-04-20T19:13:18.424Z,75.59
2023-04-20T19:15:48.902Z,75.37
2023-04-20T19:18:19.681Z,75.85
2023-04-20T19:20:50.084Z,76.38
2023-04-20T19:23:22.473Z,77.20
2023-04-20T19:25:55.201Z,77.20
2023-04-20T19:28:27.303Z,77.59
2023-04-20T19:30:57.831Z,78.22
2023-04-20T19:33:34.261Z,78.94
2023-04-20T19:36:07.081Z,78.28
2023-04-20T19:38:39.474Z,77.37
2023-04-20T19:41:10.036Z,76.62
2023-04-20T19:43:46.241Z,75.11
2023-04-20T19:46:17.161Z,74.96
2023-04-20T19:48:47.953Z,74.52
2023-04-20T19:51:23.093Z,74.31
2023-04-20T19:53:55.807Z,74.27
2023-04-20T19:56:29.384Z,73.44
2023-04-20T19:59:03.372Z,72.51
2023-04-20T20:01:33.879Z,72.45
2023-04-20T20:04:04.598Z,71.68
2023-04-20T20:06:35.132Z,71.62
2023-04-20T20:09:06.979Z,70.96
2023-04-20T20:11:37.338Z,71.03
2023-04-20T20:14:09.453Z,71.51
2023-04-20T20:16:39.774Z,71.60
2023-04-20T20:19:10.130Z,72.05
2023-04-20T20:21:40.616Z,71.93
2023-04-20T20:24:11.112Z,71.03
2023-04-20T20:26:41.512Z,70.89
2023-04-20T20:29:13.570Z,70.76
2023-04-20T20:31:44.044Z,70.93
2023-04-20T20:34:14.643Z,70.36
2023-04-20T20:36:47.827Z,69.68
2023-04-20T20:39:18.657Z,69.30
2023-04-20T20:41:51.986Z,68.63
2023-04-20T20:44:24.129Z,68.21
2023-04-20T20:46:54.652Z,68.45
2023-04-20T20:49:25.122Z,68.02
2023-04-20T20:51:55.541Z,68.53
2023-04-20T20:54:25.966Z,67.47
2023-04-20T20:56:56.379Z,67.84
2023-04-20T20:59:28.361Z,67.67
2023-04-20T21:01:58.883Z,67.00
2023-04-20T21:04:30.703Z,67.22
2023-04-20T21:07:01.360Z,65.68
2023-04-20T21:09:31.903Z,65.17
2023-04-20T21:12:03.198Z,64.83
2023-04-20T21:14:35.544Z,64.93
2023-04-20T21:17:06.095Z,64.46
2023-04-20T21:19:36.586Z,65.04
2023-04-20T21:22:07.212Z,65.46
2023-04-20T21:24:38.767Z,63.58
2023-04-20T21:27:09.293Z,64.23
2023-04-20T21:29:41.427Z,64.82
2023-04-20T21:32:12.098Z,65.74
2023-04-20T21:34:42.594Z,64.85
2023-04-20T21:37:16.488Z,65.98
2023-04-20T21:39:46.998Z,66.28
2023-04-20T21:42:17.530Z,66.23
2023-04-20T21:44:49.624Z,66.95
2023-04-20T21:47:20.939Z,66.38
2023-04-20T21:49:51.381Z,67.01
2023-04-20T21:52:21.936Z,67.19
2023-04-20T21:54:52.618Z,67.65
2023-04-20T21:57:23.171Z,66.94
2023-04-20T21:59:55.292Z,66.66
2023-04-20T22:02:25.873Z,66.49
2023-04-20T22:04:56.725Z,66.26
2023-04-20T22:07:28.515Z,66.25
2023-04-20T22:09:58.979Z,64.93
2023-04-20T22:12:39.455Z,63.23
2023-04-20T22:15:15.919Z,64.66
2023-04-20T22:17:47.732Z,63.54
2023-04-20T22:20:20.206Z,62.61
2023-04-20T22:22:50.714Z,61.78
2023-04-20T22:25:21.450Z,61.74
2023-04-20T22:27:52.000Z,61.54
2023-04-20T22:30:24.106Z,58.55
2023-04-20T22:32:54.629Z,57.31
2023-04-20T22:35:25.145Z,57.51
2023-04-20T22:37:55.830Z,56.31
2023-04-20T22:40:26.517Z,57.21
2023-04-20T22:42:56.892Z,57.18
2023-04-20T22:45:29.108Z,55.80
2023-04-20T22:47:59.848Z,56.06
2023-04-20T22:50:30.563Z,54.77
2023-04-20T22:53:03.858Z,56.76
2023-04-20T22:55:34.538Z,57.92
2023-04-20T22:58:17.074Z,56.92
2023-04-20T23:00:49.328Z,54.79
2023-04-20T23:03:19.928Z,55.53
2023-04-20T23:05:50.759Z,56.33
2023-04-20T23:08:21.452Z,55.21
2023-04-20T23:10:52.114Z,55.37
2023-04-20T23:13:22.928Z,54.76
2023-04-20T23:15:55.199Z,55.53
2023-04-20T23:18:25.713Z,55.25
2023-04-20T23:20:56.166Z,54.94
2023-04-20T23:23:26.679Z,55.41
2023-04-20T23:25:57.111Z,56.50
2023-04-20T23:28:27.548Z,57.68
2023-04-20T23:30:59.586Z,56.92
2023-04-20T23:33:29.961Z,57.20
2023-04-20T23:36:01.728Z,58.40
2023-04-20T23:38:32.248Z,57.85
2023-04-20T23:41:02.780Z,58.96
2023-04-20T23:43:33.214Z,58.19
2023-04-20T23:46:05.475Z,58.52
2023-04-20T23:48:36.426Z,59.57
2023-04-20T23:51:07.317Z,59.83
2023-04-20T23:53:38.876Z,58.59
2023-04-20T23:56:10.126Z,57.51
2023-04-20T23:58:40.590Z,59.16
